sensor_id;sensor_type;location;lat;lon;timestamp;P1;durP1;ratioP1;P2;durP2;ratioP2
73900;SDS011;62235;52.160;7.526;2023-03-23T00:01:29;17.20;;;11.15;;
73900;SDS011;62235;52.160;7.526;2023-03-23T00:03:57;14.30;;;9.85;;
73900;SDS011;62235;52.160;7.526;2023-03-23T00:06:24;18.15;;;11.02;;
73900;SDS011;62235;52.160;7.526;2023-03-23T00:08:51;17.92;;;11.25;;
73900;SDS011;62235;52.160;7.526;2023-03-23T00:11:22;14.13;;;9.93;;
73900;SDS011;62235;52.160;7.526;2023-03-23T00:13:51;13.02;;;7.15;;
73900;SDS011;62235;52.160;7.526;2023-03-23T00:16:17;14.20;;;9.23;;
73900;SDS011;62235;52.160;7.526;2023-03-23T00:18:44;16.50;;;11.45;;
73900;SDS011;62235;52.160;7.526;2023-03-23T00:21:17;14.27;;;9.35;;
73900;SDS011;62235;52.160;7.526;2023-03-23T00:23:45;15.18;;;8.90;;
73900;SDS011;62235;52.160;7.526;2023-03-23T00:26:11;15.23;;;9.75;;
73900;SDS011;62235;52.160;7.526;2023-03-23T00:28:37;20.42;;;11.85;;
73900;SDS011;62235;52.160;7.526;2023-03-23T00:31:04;13.65;;;9.48;;
73900;SDS011;62235;52.160;7.526;2023-03-23T00:33:31;17.58;;;11.13;;
73900;SDS011;62235;52.160;7.526;2023-03-23T00:36:12;13.85;;;9.70;;
73900;SDS011;62235;52.160;7.526;2023-03-23T00:38:39;16.20;;;10.65;;
73900;SDS011;62235;52.160;7.526;2023-03-23T00:41:05;15.02;;;10.95;;
73900;SDS011;62235;52.160;7.526;2023-03-23T00:43:31;18.27;;;9.88;;
73900;SDS011;62235;52.160;7.526;2023-03-23T00:45:57;16.35;;;9.68;;
73900;SDS011;62235;52.160;7.526;2023-03-23T00:48:26;14.07;;;9.70;;
73900;SDS011;62235;52.160;7.526;2023-03-23T00:50:52;15.35;;;9.13;;
73900;SDS011;62235;52.160;7.526;2023-03-23T00:53:18;13.00;;;8.10;;
73900;SDS011;62235;52.160;7.526;2023-03-23T00:55:44;14.52;;;7.82;;
73900;SDS011;62235;52.160;7.526;2023-03-23T00:58:11;12.48;;;7.90;;
73900;SDS011;62235;52.160;7.526;2023-03-23T01:00:37;15.25;;;7.47;;
73900;SDS011;62235;52.160;7.526;2023-03-23T01:03:03;13.57;;;8.13;;
73900;SDS011;62235;52.160;7.526;2023-03-23T01:05:29;13.18;;;8.30;;
73900;SDS011;62235;52.160;7.526;2023-03-23T01:07:57;14.70;;;9.18;;
73900;SDS011;62235;52.160;7.526;2023-03-23T01:10:23;13.20;;;8.82;;
73900;SDS011;62235;52.160;7.526;2023-03-23T01:12:49;10.98;;;7.30;;
73900;SDS011;62235;52.160;7.526;2023-03-23T01:15:16;12.40;;;8.10;;
73900;SDS011;62235;52.160;7.526;2023-03-23T01:17:42;12.38;;;6.90;;
73900;SDS011;62235;52.160;7.526;2023-03-23T01:20:08;11.25;;;7.97;;
73900;SDS011;62235;52.160;7.526;2023-03-23T01:22:34;11.48;;;7.40;;
73900;SDS011;62235;52.160;7.526;2023-03-23T01:25:00;12.07;;;6.90;;
73900;SDS011;62235;52.160;7.526;2023-03-23T01:27:25;12.30;;;7.75;;
73900;SDS011;62235;52.160;7.526;2023-03-23T01:29:50;10.90;;;6.40;;
73900;SDS011;62235;52.160;7.526;2023-03-23T01:32:16;9.30;;;6.35;;
73900;SDS011;62235;52.160;7.526;2023-03-23T01:34:41;13.15;;;7.68;;
73900;SDS011;62235;52.160;7.526;2023-03-23T01:37:07;8.57;;;5.28;;
73900;SDS011;62235;52.160;7.526;2023-03-23T01:39:32;10.00;;;5.85;;
73900;SDS011;62235;52.160;7.526;2023-03-23T01:41:58;9.95;;;6.75;;
73900;SDS011;62235;52.160;7.526;2023-03-23T01:46:48;12.47;;;6.13;;
73900;SDS011;62235;52.160;7.526;2023-03-23T01:49:18;11.45;;;6.40;;
73900;SDS011;62235;52.160;7.526;2023-03-23T01:51:48;10.18;;;6.78;;
73900;SDS011;62235;52.160;7.526;2023-03-23T01:54:15;10.45;;;6.15;;
73900;SDS011;62235;52.160;7.526;2023-03-23T01:56:45;9.02;;;5.35;;
73900;SDS011;62235;52.160;7.526;2023-03-23T01:59:13;11.35;;;5.40;;
73900;SDS011;62235;52.160;7.526;2023-03-23T02:01:38;11.27;;;7.10;;
73900;SDS011;62235;52.160;7.526;2023-03-23T02:04:09;7.78;;;4.78;;
73900;SDS011;62235;52.160;7.526;2023-03-23T02:06:35;8.35;;;5.07;;
73900;SDS011;62235;52.160;7.526;2023-03-23T02:09:01;9.60;;;5.63;;
73900;SDS011;62235;52.160;7.526;2023-03-23T02:11:26;9.90;;;5.30;;
73900;SDS011;62235;52.160;7.526;2023-03-23T02:13:52;6.23;;;4.40;;
73900;SDS011;62235;52.160;7.526;2023-03-23T02:16:25;8.93;;;4.80;;
73900;SDS011;62235;52.160;7.526;2023-03-23T02:19:18;8.90;;;4.90;;
73900;SDS011;62235;52.160;7.526;2023-03-23T02:26:58;8.32;;;5.40;;
73900;SDS011;62235;52.160;7.526;2023-03-23T02:29:39;8.98;;;5.18;;
73900;SDS011;62235;52.160;7.526;2023-03-23T02:35:10;7.82;;;5.30;;
73900;SDS011;62235;52.160;7.526;2023-03-23T02:38:01;10.20;;;5.22;;
73900;SDS011;62235;52.160;7.526;2023-03-23T02:40:38;7.45;;;4.78;;
73900;SDS011;62235;52.160;7.526;2023-03-23T02:43:09;6.95;;;4.57;;
73900;SDS011;62235;52.160;7.526;2023-03-23T02:45:38;7.70;;;4.50;;
73900;SDS011;62235;52.160;7.526;2023-03-23T02:48:05;10.65;;;5.00;;
73900;SDS011;62235;52.160;7.526;2023-03-23T02:50:30;8.93;;;4.75;;
73900;SDS011;62235;52.160;7.526;2023-03-23T02:52:57;7.90;;;4.60;;
73900;SDS011;62235;52.160;7.526;2023-03-23T02:55:23;6.97;;;4.05;;
73900;SDS011;62235;52.160;7.526;2023-03-23T02:57:50;6.25;;;4.60;;
73900;SDS011;62235;52.160;7.526;2023-03-23T03:00:17;7.85;;;5.00;;
73900;SDS011;62235;52.160;7.526;2023-03-23T03:02:44;8.05;;;5.00;;
73900;SDS011;62235;52.160;7.526;2023-03-23T03:18:42;8.10;;;4.50;;
73900;SDS011;62235;52.160;7.526;2023-03-23T03:21:11;6.35;;;4.30;;
73900;SDS011;62235;52.160;7.526;2023-03-23T03:23:39;6.72;;;3.70;;
73900;SDS011;62235;52.160;7.526;2023-03-23T03:26:06;5.32;;;3.75;;
73900;SDS011;62235;52.160;7.526;2023-03-23T03:28:34;6.95;;;4.03;;
73900;SDS011;62235;52.160;7.526;2023-03-23T03:31:01;7.07;;;4.47;;
73900;SDS011;62235;52.160;7.526;2023-03-23T03:33:28;7.05;;;4.55;;
73900;SDS011;62235;52.160;7.526;2023-03-23T03:35:55;7.63;;;3.88;;
73900;SDS011;62235;52.160;7.526;2023-03-23T03:38:22;7.25;;;4.93;;
73900;SDS011;62235;52.160;7.526;2023-03-23T03:40:48;7.20;;;4.45;;
73900;SDS011;62235;52.160;7.526;2023-03-23T03:43:13;5.40;;;3.78;;
73900;SDS011;62235;52.160;7.526;2023-03-23T03:45:38;7.77;;;4.93;;
73900;SDS011;62235;52.160;7.526;2023-03-23T03:48:05;6.45;;;4.80;;
73900;SDS011;62235;52.160;7.526;2023-03-23T03:50:31;6.22;;;4.22;;
73900;SDS011;62235;52.160;7.526;2023-03-23T03:52:57;9.18;;;4.95;;
73900;SDS011;62235;52.160;7.526;2023-03-23T03:55:23;6.95;;;4.35;;
73900;SDS011;62235;52.160;7.526;2023-03-23T03:57:48;5.68;;;4.57;;
73900;SDS011;62235;52.160;7.526;2023-03-23T04:00:13;8.38;;;4.68;;
73900;SDS011;62235;52.160;7.526;2023-03-23T04:02:43;7.88;;;5.20;;
73900;SDS011;62235;52.160;7.526;2023-03-23T04:05:12;7.25;;;5.43;;
73900;SDS011;62235;52.160;7.526;2023-03-23T04:07:38;6.20;;;4.43;;
73900;SDS011;62235;52.160;7.526;2023-03-23T04:10:05;6.63;;;4.05;;
73900;SDS011;62235;52.160;7.526;2023-03-23T04:12:31;6.95;;;4.65;;
73900;SDS011;62235;52.160;7.526;2023-03-23T04:14:57;5.75;;;4.13;;
73900;SDS011;62235;52.160;7.526;2023-03-23T04:17:22;5.85;;;3.88;;
73900;SDS011;62235;52.160;7.526;2023-03-23T04:19:51;6.40;;;4.55;;
73900;SDS011;62235;52.160;7.526;2023-03-23T04:22:16;6.63;;;4.43;;
73900;SDS011;62235;52.160;7.526;2023-03-23T04:24:42;6.13;;;4.67;;
73900;SDS011;62235;52.160;7.526;2023-03-23T04:27:07;10.43;;;4.60;;
73900;SDS011;62235;52.160;7.526;2023-03-23T04:29:33;6.38;;;3.83;;
73900;SDS011;62235;52.160;7.526;2023-03-23T04:31:58;6.72;;;5.10;;
73900;SDS011;62235;52.160;7.526;2023-03-23T04:34:26;7.85;;;5.53;;
73900;SDS011;62235;52.160;7.526;2023-03-23T04:36:51;6.53;;;4.82;;
73900;SDS011;62235;52.160;7.526;2023-03-23T04:39:16;6.32;;;4.15;;
73900;SDS011;62235;52.160;7.526;2023-03-23T04:41:42;6.32;;;5.25;;
73900;SDS011;62235;52.160;7.526;2023-03-23T04:44:09;6.40;;;4.05;;
73900;SDS011;62235;52.160;7.526;2023-03-23T04:46:34;6.43;;;4.38;;
73900;SDS011;62235;52.160;7.526;2023-03-23T04:49:00;7.33;;;4.63;;
73900;SDS011;62235;52.160;7.526;2023-03-23T04:51:26;7.93;;;5.10;;
73900;SDS011;62235;52.160;7.526;2023-03-23T04:53:53;7.25;;;4.40;;
73900;SDS011;62235;52.160;7.526;2023-03-23T04:56:18;5.85;;;4.47;;
73900;SDS011;62235;52.160;7.526;2023-03-23T04:58:44;6.40;;;4.65;;
73900;SDS011;62235;52.160;7.526;2023-03-23T05:01:10;6.38;;;4.88;;
73900;SDS011;62235;52.160;7.526;2023-03-23T05:03:39;5.45;;;4.15;;
73900;SDS011;62235;52.160;7.526;2023-03-23T05:06:04;6.55;;;5.20;;
73900;SDS011;62235;52.160;7.526;2023-03-23T05:08:31;5.68;;;4.20;;
73900;SDS011;62235;52.160;7.526;2023-03-23T05:10:57;6.03;;;4.07;;
73900;SDS011;62235;52.160;7.526;2023-03-23T05:13:23;5.60;;;3.65;;
73900;SDS011;62235;52.160;7.526;2023-03-23T05:15:49;4.57;;;3.92;;
73900;SDS011;62235;52.160;7.526;2023-03-23T05:18:15;5.75;;;3.75;;
73900;SDS011;62235;52.160;7.526;2023-03-23T05:20:41;5.20;;;4.22;;
73900;SDS011;62235;52.160;7.526;2023-03-23T05:23:11;5.50;;;3.97;;
73900;SDS011;62235;52.160;7.526;2023-03-23T05:25:37;4.82;;;3.95;;
73900;SDS011;62235;52.160;7.526;2023-03-23T05:28:08;6.13;;;4.10;;
73900;SDS011;62235;52.160;7.526;2023-03-23T05:30:35;5.45;;;3.80;;
73900;SDS011;62235;52.160;7.526;2023-03-23T05:33:01;5.80;;;3.60;;
73900;SDS011;62235;52.160;7.526;2023-03-23T05:35:26;5.28;;;3.83;;
73900;SDS011;62235;52.160;7.526;2023-03-23T05:37:52;5.15;;;3.20;;
73900;SDS011;62235;52.160;7.526;2023-03-23T05:40:18;5.63;;;3.67;;
73900;SDS011;62235;52.160;7.526;2023-03-23T05:42:45;6.07;;;4.07;;
73900;SDS011;62235;52.160;7.526;2023-03-23T05:45:10;4.78;;;3.42;;
73900;SDS011;62235;52.160;7.526;2023-03-23T05:47:36;5.25;;;3.03;;
73900;SDS011;62235;52.160;7.526;2023-03-23T05:50:02;6.10;;;3.55;;
73900;SDS011;62235;52.160;7.526;2023-03-23T05:52:28;5.57;;;3.63;;
73900;SDS011;62235;52.160;7.526;2023-03-23T05:54:53;4.47;;;3.17;;
73900;SDS011;62235;52.160;7.526;2023-03-23T05:57:19;4.63;;;3.13;;
73900;SDS011;62235;52.160;7.526;2023-03-23T05:59:46;5.25;;;3.00;;
73900;SDS011;62235;52.160;7.526;2023-03-23T06:02:12;6.50;;;3.30;;
73900;SDS011;62235;52.160;7.526;2023-03-23T06:04:38;4.43;;;2.95;;
73900;SDS011;62235;52.160;7.526;2023-03-23T06:07:06;7.50;;;3.88;;
73900;SDS011;62235;52.160;7.526;2023-03-23T06:09:32;5.70;;;3.60;;
73900;SDS011;62235;52.160;7.526;2023-03-23T06:11:57;6.20;;;3.30;;
73900;SDS011;62235;52.160;7.526;2023-03-23T06:14:22;6.90;;;3.30;;
73900;SDS011;62235;52.160;7.526;2023-03-23T06:16:48;5.43;;;3.20;;
73900;SDS011;62235;52.160;7.526;2023-03-23T06:19:13;6.18;;;2.92;;
73900;SDS011;62235;52.160;7.526;2023-03-23T06:21:40;4.35;;;2.90;;
73900;SDS011;62235;52.160;7.526;2023-03-23T06:24:06;6.30;;;2.97;;
73900;SDS011;62235;52.160;7.526;2023-03-23T06:26:33;6.05;;;2.58;;
73900;SDS011;62235;52.160;7.526;2023-03-23T06:29:00;4.50;;;2.58;;
73900;SDS011;62235;52.160;7.526;2023-03-23T06:31:26;4.38;;;2.72;;
73900;SDS011;62235;52.160;7.526;2023-03-23T06:33:51;5.15;;;3.00;;
73900;SDS011;62235;52.160;7.526;2023-03-23T06:36:17;4.63;;;2.80;;
73900;SDS011;62235;52.160;7.526;2023-03-23T06:38:44;3.85;;;2.65;;
73900;SDS011;62235;52.160;7.526;2023-03-23T06:41:09;4.35;;;2.78;;
73900;SDS011;62235;52.160;7.526;2023-03-23T06:43:35;6.30;;;3.20;;
73900;SDS011;62235;52.160;7.526;2023-03-23T06:46:05;7.28;;;3.25;;
73900;SDS011;62235;52.160;7.526;2023-03-23T06:48:31;5.25;;;2.40;;
73900;SDS011;62235;52.160;7.526;2023-03-23T06:50:57;6.03;;;2.97;;
73900;SDS011;62235;52.160;7.526;2023-03-23T06:53:22;4.28;;;2.58;;
73900;SDS011;62235;52.160;7.526;2023-03-23T06:55:47;5.40;;;2.55;;
73900;SDS011;62235;52.160;7.526;2023-03-23T06:58:13;3.97;;;2.60;;
73900;SDS011;62235;52.160;7.526;2023-03-23T07:00:38;5.25;;;3.03;;
73900;SDS011;62235;52.160;7.526;2023-03-23T07:03:05;6.53;;;2.95;;
73900;SDS011;62235;52.160;7.526;2023-03-23T07:05:32;4.95;;;1.95;;
73900;SDS011;62235;52.160;7.526;2023-03-23T07:07:58;4.20;;;2.42;;
73900;SDS011;62235;52.160;7.526;2023-03-23T07:10:23;4.83;;;2.90;;
73900;SDS011;62235;52.160;7.526;2023-03-23T07:12:48;4.95;;;2.55;;
73900;SDS011;62235;52.160;7.526;2023-03-23T07:15:14;5.22;;;2.38;;
73900;SDS011;62235;52.160;7.526;2023-03-23T07:17:40;5.05;;;2.25;;
73900;SDS011;62235;52.160;7.526;2023-03-23T07:20:06;7.25;;;2.50;;
73900;SDS011;62235;52.160;7.526;2023-03-23T07:22:32;5.80;;;2.63;;
73900;SDS011;62235;52.160;7.526;2023-03-23T07:24:58;6.00;;;1.95;;
73900;SDS011;62235;52.160;7.526;2023-03-23T07:27:23;7.88;;;2.38;;
73900;SDS011;62235;52.160;7.526;2023-03-23T07:29:49;2.90;;;2.05;;
73900;SDS011;62235;52.160;7.526;2023-03-23T07:32:15;4.53;;;2.67;;
73900;SDS011;62235;52.160;7.526;2023-03-23T07:34:40;3.53;;;1.93;;
73900;SDS011;62235;52.160;7.526;2023-03-23T07:37:06;2.22;;;1.50;;
73900;SDS011;62235;52.160;7.526;2023-03-23T07:39:32;6.72;;;2.30;;
73900;SDS011;62235;52.160;7.526;2023-03-23T07:41:58;6.13;;;2.50;;
73900;SDS011;62235;52.160;7.526;2023-03-23T07:44:23;8.35;;;2.72;;
73900;SDS011;62235;52.160;7.526;2023-03-23T07:46:48;5.63;;;2.38;;
73900;SDS011;62235;52.160;7.526;2023-03-23T07:49:14;8.55;;;2.50;;
73900;SDS011;62235;52.160;7.526;2023-03-23T07:51:40;3.45;;;2.08;;
73900;SDS011;62235;52.160;7.526;2023-03-23T07:54:05;5.72;;;2.20;;
73900;SDS011;62235;52.160;7.526;2023-03-23T07:56:32;5.15;;;2.40;;
73900;SDS011;62235;52.160;7.526;2023-03-23T07:58:58;5.47;;;2.35;;
73900;SDS011;62235;52.160;7.526;2023-03-23T08:01:24;6.50;;;2.30;;
73900;SDS011;62235;52.160;7.526;2023-03-23T08:03:49;6.72;;;2.45;;
73900;SDS011;62235;52.160;7.526;2023-03-23T08:06:16;5.75;;;2.10;;
73900;SDS011;62235;52.160;7.526;2023-03-23T08:08:41;4.20;;;2.00;;
73900;SDS011;62235;52.160;7.526;2023-03-23T08:11:06;6.70;;;2.27;;
73900;SDS011;62235;52.160;7.526;2023-03-23T08:13:32;5.67;;;2.10;;
73900;SDS011;62235;52.160;7.526;2023-03-23T08:15:58;4.28;;;1.83;;
73900;SDS011;62235;52.160;7.526;2023-03-23T08:18:25;3.92;;;1.80;;
73900;SDS011;62235;52.160;7.526;2023-03-23T08:20:51;13.38;;;3.00;;
73900;SDS011;62235;52.160;7.526;2023-03-23T08:23:18;6.55;;;2.40;;
73900;SDS011;62235;52.160;7.526;2023-03-23T08:25:44;4.95;;;1.83;;
73900;SDS011;62235;52.160;7.526;2023-03-23T08:28:09;8.17;;;1.87;;
73900;SDS011;62235;52.160;7.526;2023-03-23T08:30:34;7.30;;;2.30;;
73900;SDS011;62235;52.160;7.526;2023-03-23T08:33:01;5.22;;;1.48;;
73900;SDS011;62235;52.160;7.526;2023-03-23T08:35:27;5.38;;;1.45;;
73900;SDS011;62235;52.160;7.526;2023-03-23T08:37:53;6.82;;;2.35;;
73900;SDS011;62235;52.160;7.526;2023-03-23T08:40:20;4.05;;;1.88;;
73900;SDS011;62235;52.160;7.526;2023-03-23T08:42:47;5.47;;;1.80;;
73900;SDS011;62235;52.160;7.526;2023-03-23T08:45:14;4.03;;;1.80;;
73900;SDS011;62235;52.160;7.526;2023-03-23T08:47:43;1.80;;;1.05;;
73900;SDS011;62235;52.160;7.526;2023-03-23T08:50:10;6.10;;;1.60;;
73900;SDS011;62235;52.160;7.526;2023-03-23T08:52:37;7.32;;;2.00;;
73900;SDS011;62235;52.160;7.526;2023-03-23T08:55:03;3.58;;;1.45;;
73900;SDS011;62235;52.160;7.526;2023-03-23T08:57:30;7.25;;;1.67;;
73900;SDS011;62235;52.160;7.526;2023-03-23T08:59:55;4.03;;;1.77;;
73900;SDS011;62235;52.160;7.526;2023-03-23T09:02:24;5.15;;;1.63;;
73900;SDS011;62235;52.160;7.526;2023-03-23T09:04:51;4.28;;;1.60;;
73900;SDS011;62235;52.160;7.526;2023-03-23T09:07:17;4.53;;;1.58;;
73900;SDS011;62235;52.160;7.526;2023-03-23T09:09:43;4.97;;;1.50;;
73900;SDS011;62235;52.160;7.526;2023-03-23T09:12:09;5.07;;;1.25;;
73900;SDS011;62235;52.160;7.526;2023-03-23T09:14:35;3.28;;;1.00;;
73900;SDS011;62235;52.160;7.526;2023-03-23T09:17:01;4.43;;;1.13;;
73900;SDS011;62235;52.160;7.526;2023-03-23T09:19:27;5.53;;;0.95;;
73900;SDS011;62235;52.160;7.526;2023-03-23T09:21:53;1.92;;;0.80;;
73900;SDS011;62235;52.160;7.526;2023-03-23T09:24:19;2.03;;;0.70;;
73900;SDS011;62235;52.160;7.526;2023-03-23T09:26:44;1.40;;;0.57;;
73900;SDS011;62235;52.160;7.526;2023-03-23T09:29:10;1.02;;;0.52;;
73900;SDS011;62235;52.160;7.526;2023-03-23T09:31:36;0.95;;;0.40;;
73900;SDS011;62235;52.160;7.526;2023-03-23T09:34:01;1.35;;;0.50;;
73900;SDS011;62235;52.160;7.526;2023-03-23T09:36:29;5.15;;;0.80;;
73900;SDS011;62235;52.160;7.526;2023-03-23T09:38:56;1.58;;;0.70;;
73900;SDS011;62235;52.160;7.526;2023-03-23T09:49:56;3.53;;;1.20;;
73900;SDS011;62235;52.160;7.526;2023-03-23T09:52:47;2.90;;;1.17;;
73900;SDS011;62235;52.160;7.526;2023-03-23T09:55:16;3.47;;;1.30;;
73900;SDS011;62235;52.160;7.526;2023-03-23T09:57:53;3.35;;;1.15;;
73900;SDS011;62235;52.160;7.526;2023-03-23T10:00:25;3.03;;;1.00;;
73900;SDS011;62235;52.160;7.526;2023-03-23T10:03:05;1.55;;;0.73;;
73900;SDS011;62235;52.160;7.526;2023-03-23T10:05:51;1.75;;;0.50;;
73900;SDS011;62235;52.160;7.526;2023-03-23T10:08:22;2.58;;;0.70;;
73900;SDS011;62235;52.160;7.526;2023-03-23T10:16:31;1.10;;;0.50;;
73900;SDS011;62235;52.160;7.526;2023-03-23T10:21:27;2.95;;;0.85;;
73900;SDS011;62235;52.160;7.526;2023-03-23T10:23:57;3.53;;;1.00;;
73900;SDS011;62235;52.160;7.526;2023-03-23T10:29:10;2.55;;;0.75;;
73900;SDS011;62235;52.160;7.526;2023-03-23T10:31:40;1.80;;;0.80;;
73900;SDS011;62235;52.160;7.526;2023-03-23T10:34:10;3.78;;;0.60;;
73900;SDS011;62235;52.160;7.526;2023-03-23T10:36:50;2.38;;;0.50;;
73900;SDS011;62235;52.160;7.526;2023-03-23T10:39:23;1.13;;;0.40;;
73900;SDS011;62235;52.160;7.526;2023-03-23T10:41:51;1.63;;;0.47;;
73900;SDS011;62235;52.160;7.526;2023-03-23T10:44:21;0.65;;;0.30;;
73900;SDS011;62235;52.160;7.526;2023-03-23T10:47:03;2.58;;;0.70;;
73900;SDS011;62235;52.160;7.526;2023-03-23T10:54:55;4.28;;;1.00;;
73900;SDS011;62235;52.160;7.526;2023-03-23T10:57:30;2.50;;;0.57;;
73900;SDS011;62235;52.160;7.526;2023-03-23T11:02:45;2.67;;;0.45;;
73900;SDS011;62235;52.160;7.526;2023-03-23T11:05:21;1.70;;;0.55;;
73900;SDS011;62235;52.160;7.526;2023-03-23T11:07:50;2.05;;;0.55;;
73900;SDS011;62235;52.160;7.526;2023-03-23T11:10:21;2.88;;;0.68;;
73900;SDS011;62235;52.160;7.526;2023-03-23T11:12:46;1.85;;;0.68;;
73900;SDS011;62235;52.160;7.526;2023-03-23T11:17:56;3.83;;;0.80;;
73900;SDS011;62235;52.160;7.526;2023-03-23T11:20:23;2.65;;;0.80;;
73900;SDS011;62235;52.160;7.526;2023-03-23T11:22:50;1.90;;;0.77;;
73900;SDS011;62235;52.160;7.526;2023-03-23T11:25:15;2.10;;;0.65;;
73900;SDS011;62235;52.160;7.526;2023-03-23T11:27:41;2.28;;;0.68;;
73900;SDS011;62235;52.160;7.526;2023-03-23T11:32:35;1.00;;;0.55;;
73900;SDS011;62235;52.160;7.526;2023-03-23T11:35:03;2.30;;;0.60;;
73900;SDS011;62235;52.160;7.526;2023-03-23T11:37:40;1.55;;;0.50;;
73900;SDS011;62235;52.160;7.526;2023-03-23T11:43:38;2.58;;;0.60;;
73900;SDS011;62235;52.160;7.526;2023-03-23T11:50:54;2.47;;;0.80;;
73900;SDS011;62235;52.160;7.526;2023-03-23T11:56:14;2.30;;;0.70;;
73900;SDS011;62235;52.160;7.526;2023-03-23T11:58:43;2.97;;;0.60;;
73900;SDS011;62235;52.160;7.526;2023-03-23T12:01:19;5.43;;;0.80;;
73900;SDS011;62235;52.160;7.526;2023-03-23T12:03:56;3.60;;;0.93;;
73900;SDS011;62235;52.160;7.526;2023-03-23T12:06:34;3.97;;;0.52;;
73900;SDS011;62235;52.160;7.526;2023-03-23T12:12:06;1.33;;;0.50;;
73900;SDS011;62235;52.160;7.526;2023-03-23T12:17:30;1.80;;;0.57;;
73900;SDS011;62235;52.160;7.526;2023-03-23T12:38:57;1.60;;;0.70;;
73900;SDS011;62235;52.160;7.526;2023-03-23T12:44:14;6.20;;;0.90;;
73900;SDS011;62235;52.160;7.526;2023-03-23T13:05:29;2.75;;;0.90;;
73900;SDS011;62235;52.160;7.526;2023-03-23T13:08:01;4.90;;;1.10;;
73900;SDS011;62235;52.160;7.526;2023-03-23T13:10:32;2.85;;;0.88;;
73900;SDS011;62235;52.160;7.526;2023-03-23T13:13:00;3.47;;;0.80;;
73900;SDS011;62235;52.160;7.526;2023-03-23T13:23:53;3.00;;;0.75;;
73900;SDS011;62235;52.160;7.526;2023-03-23T13:26:21;3.25;;;1.00;;
73900;SDS011;62235;52.160;7.526;2023-03-23T13:28:54;3.72;;;0.80;;
73900;SDS011;62235;52.160;7.526;2023-03-23T13:31:33;2.25;;;0.73;;
73900;SDS011;62235;52.160;7.526;2023-03-23T13:34:05;3.13;;;0.80;;
73900;SDS011;62235;52.160;7.526;2023-03-23T13:36:36;2.63;;;1.08;;
73900;SDS011;62235;52.160;7.526;2023-03-23T13:39:04;3.30;;;0.82;;
73900;SDS011;62235;52.160;7.526;2023-03-23T13:41:44;4.82;;;1.27;;
73900;SDS011;62235;52.160;7.526;2023-03-23T13:44:22;1.95;;;0.68;;
73900;SDS011;62235;52.160;7.526;2023-03-23T13:47:08;4.20;;;1.13;;
73900;SDS011;62235;52.160;7.526;2023-03-23T13:50:31;2.40;;;0.90;;
73900;SDS011;62235;52.160;7.526;2023-03-23T13:57:53;2.60;;;0.85;;
73900;SDS011;62235;52.160;7.526;2023-03-23T14:05:37;3.58;;;1.50;;
73900;SDS011;62235;52.160;7.526;2023-03-23T14:10:52;2.97;;;1.17;;
73900;SDS011;62235;52.160;7.526;2023-03-23T14:13:30;2.40;;;0.70;;
73900;SDS011;62235;52.160;7.526;2023-03-23T14:16:21;1.95;;;1.00;;
73900;SDS011;62235;52.160;7.526;2023-03-23T14:18:50;3.10;;;1.15;;
73900;SDS011;62235;52.160;7.526;2023-03-23T14:21:20;3.13;;;1.10;;
73900;SDS011;62235;52.160;7.526;2023-03-23T14:23:51;2.67;;;1.10;;
73900;SDS011;62235;52.160;7.526;2023-03-23T14:26:17;2.72;;;1.25;;
73900;SDS011;62235;52.160;7.526;2023-03-23T14:31:15;3.25;;;1.25;;
73900;SDS011;62235;52.160;7.526;2023-03-23T14:33:43;2.38;;;1.00;;
73900;SDS011;62235;52.160;7.526;2023-03-23T14:36:09;6.10;;;1.30;;
73900;SDS011;62235;52.160;7.526;2023-03-23T14:38:34;2.63;;;1.30;;
73900;SDS011;62235;52.160;7.526;2023-03-23T14:41:03;4.53;;;1.15;;
73900;SDS011;62235;52.160;7.526;2023-03-23T14:43:29;2.97;;;1.08;;
73900;SDS011;62235;52.160;7.526;2023-03-23T14:45:55;7.32;;;4.90;;
73900;SDS011;62235;52.160;7.526;2023-03-23T14:48:23;3.70;;;2.58;;
73900;SDS011;62235;52.160;7.526;2023-03-23T14:50:49;4.53;;;1.40;;
73900;SDS011;62235;52.160;7.526;2023-03-23T14:53:38;3.03;;;1.30;;
73900;SDS011;62235;52.160;7.526;2023-03-23T14:56:12;2.65;;;1.48;;
73900;SDS011;62235;52.160;7.526;2023-03-23T14:58:38;3.53;;;1.45;;
73900;SDS011;62235;52.160;7.526;2023-03-23T15:01:18;2.85;;;1.50;;
73900;SDS011;62235;52.160;7.526;2023-03-23T15:03:49;6.25;;;1.90;;
73900;SDS011;62235;52.160;7.526;2023-03-23T15:06:18;2.97;;;1.95;;
73900;SDS011;62235;52.160;7.526;2023-03-23T15:08:46;3.22;;;1.80;;
73900;SDS011;62235;52.160;7.526;2023-03-23T15:11:21;4.03;;;1.95;;
73900;SDS011;62235;52.160;7.526;2023-03-23T15:13:50;2.88;;;1.70;;
73900;SDS011;62235;52.160;7.526;2023-03-23T15:21:26;3.80;;;1.35;;
73900;SDS011;62235;52.160;7.526;2023-03-23T15:23:53;1.45;;;1.05;;
73900;SDS011;62235;52.160;7.526;2023-03-23T15:26:23;4.63;;;1.50;;
73900;SDS011;62235;52.160;7.526;2023-03-23T15:31:52;2.75;;;1.30;;
73900;SDS011;62235;52.160;7.526;2023-03-23T15:34:32;2.17;;;0.98;;
73900;SDS011;62235;52.160;7.526;2023-03-23T15:37:04;3.22;;;1.60;;
73900;SDS011;62235;52.160;7.526;2023-03-23T15:39:31;3.92;;;1.60;;
73900;SDS011;62235;52.160;7.526;2023-03-23T15:41:57;4.45;;;1.77;;
73900;SDS011;62235;52.160;7.526;2023-03-23T15:44:28;5.28;;;1.80;;
73900;SDS011;62235;52.160;7.526;2023-03-23T15:47:15;3.55;;;1.45;;
73900;SDS011;62235;52.160;7.526;2023-03-23T15:49:42;5.18;;;1.50;;
73900;SDS011;62235;52.160;7.526;2023-03-23T15:52:09;3.83;;;1.55;;
73900;SDS011;62235;52.160;7.526;2023-03-23T15:54:36;2.85;;;1.33;;
73900;SDS011;62235;52.160;7.526;2023-03-23T15:57:01;2.88;;;1.40;;
73900;SDS011;62235;52.160;7.526;2023-03-23T15:59:27;6.70;;;1.67;;
73900;SDS011;62235;52.160;7.526;2023-03-23T16:01:52;8.32;;;1.60;;
73900;SDS011;62235;52.160;7.526;2023-03-23T16:04:17;3.55;;;1.48;;
73900;SDS011;62235;52.160;7.526;2023-03-23T16:06:43;6.35;;;2.05;;
73900;SDS011;62235;52.160;7.526;2023-03-23T16:09:17;5.63;;;1.75;;
73900;SDS011;62235;52.160;7.526;2023-03-23T16:11:44;6.20;;;1.73;;
73900;SDS011;62235;52.160;7.526;2023-03-23T16:14:10;4.32;;;1.33;;
73900;SDS011;62235;52.160;7.526;2023-03-23T16:16:43;6.05;;;2.13;;
73900;SDS011;62235;52.160;7.526;2023-03-23T16:19:11;6.60;;;1.60;;
73900;SDS011;62235;52.160;7.526;2023-03-23T16:21:37;5.55;;;1.88;;
73900;SDS011;62235;52.160;7.526;2023-03-23T16:24:02;5.90;;;1.43;;
73900;SDS011;62235;52.160;7.526;2023-03-23T16:26:28;6.78;;;2.10;;
73900;SDS011;62235;52.160;7.526;2023-03-23T16:28:53;5.22;;;1.85;;
73900;SDS011;62235;52.160;7.526;2023-03-23T16:31:19;5.15;;;1.73;;
73900;SDS011;62235;52.160;7.526;2023-03-23T16:33:44;5.38;;;2.30;;
73900;SDS011;62235;52.160;7.526;2023-03-23T16:36:13;6.43;;;2.30;;
73900;SDS011;62235;52.160;7.526;2023-03-23T16:38:39;4.63;;;2.00;;
73900;SDS011;62235;52.160;7.526;2023-03-23T16:41:04;4.63;;;2.20;;
73900;SDS011;62235;52.160;7.526;2023-03-23T16:43:30;5.68;;;2.22;;
73900;SDS011;62235;52.160;7.526;2023-03-23T16:45:56;4.78;;;2.20;;
73900;SDS011;62235;52.160;7.526;2023-03-23T16:48:21;7.05;;;2.50;;
73900;SDS011;62235;52.160;7.526;2023-03-23T16:50:47;6.65;;;2.70;;
73900;SDS011;62235;52.160;7.526;2023-03-23T16:53:13;5.15;;;2.17;;
73900;SDS011;62235;52.160;7.526;2023-03-23T16:55:38;7.38;;;2.15;;
73900;SDS011;62235;52.160;7.526;2023-03-23T16:58:04;7.53;;;3.67;;
73900;SDS011;62235;52.160;7.526;2023-03-23T17:00:30;6.75;;;1.83;;
73900;SDS011;62235;52.160;7.526;2023-03-23T17:02:55;6.25;;;2.92;;
73900;SDS011;62235;52.160;7.526;2023-03-23T17:05:25;6.22;;;3.13;;
73900;SDS011;62235;52.160;7.526;2023-03-23T17:07:51;9.80;;;2.72;;
73900;SDS011;62235;52.160;7.526;2023-03-23T17:10:20;8.15;;;3.13;;
73900;SDS011;62235;52.160;7.526;2023-03-23T17:12:47;6.28;;;3.25;;
73900;SDS011;62235;52.160;7.526;2023-03-23T17:15:12;5.95;;;3.47;;
73900;SDS011;62235;52.160;7.526;2023-03-23T17:17:38;6.63;;;3.97;;